sensor_id;sensor_type;location;lat;lon;timestamp;pressure;altitude;pressure_sealevel;temperature;humidity
36834;BME280;48003;52.084;5.224;2023-12-22T00:01:08;100286.0;;;9.3;78.02
36834;BME280;48003;52.084;5.224;2023-12-22T00:02:45;100280.0;;;9.39;77.78
36834;BME280;48003;52.084;5.224;2023-12-22T00:04:21;100285.0;;;9.31;77.99
36834;BME280;48003;52.084;5.224;2023-12-22T00:07:33;100292.0;;;9.19;78.16
36834;BME280;48003;52.084;5.224;2023-12-22T00:09:09;100297.0;;;9.19;78.44
36834;BME280;48003;52.084;5.224;2023-12-22T00:10:45;100305.0;;;9.34;78.34
36834;BME280;48003;52.084;5.224;2023-12-22T00:13:57;100305.0;;;9.33;78.3
36834;BME280;48003;52.084;5.224;2023-12-22T00:15:34;100313.0;;;9.27;78.5
36834;BME280;48003;52.084;5.224;2023-12-22T00:17:10;100330.0;;;9.39;78.95
36834;BME280;48003;52.084;5.224;2023-12-22T00:18:46;100323.0;;;9.39;79.08
36834;BME280;48003;52.084;5.224;2023-12-22T00:21:58;100335.0;;;9.27;80.19
36834;BME280;48003;52.084;5.224;2023-12-22T00:23:34;100339.0;;;9.07;80.83
36834;BME280;48003;52.084;5.224;2023-12-22T00:25:10;100335.0;;;9.18;81.55
36834;BME280;48003;52.084;5.224;2023-12-22T00:28:22;100328.0;;;9.19;82.21
36834;BME280;48003;52.084;5.224;2023-12-22T00:29:58;100348.0;;;9.07;82.01
36834;BME280;48003;52.084;5.224;2023-12-22T00:31:35;100334.0;;;8.89;80.66
36834;BME280;48003;52.084;5.224;2023-12-22T00:34:47;100320.0;;;8.77;79.58
36834;BME280;48003;52.084;5.224;2023-12-22T00:36:23;100347.0;;;8.63;79.8
36834;BME280;48003;52.084;5.224;2023-12-22T00:37:59;100343.0;;;8.51;79.33
36834;BME280;48003;52.084;5.224;2023-12-22T00:41:11;100355.0;;;8.4;79.86
36834;BME280;48003;52.084;5.224;2023-12-22T00:42:47;100355.0;;;8.22;81.52
36834;BME280;48003;52.084;5.224;2023-12-22T00:44:23;100341.0;;;8.23;82.73
36834;BME280;48003;52.084;5.224;2023-12-22T00:45:59;100334.0;;;8.28;83.09
36834;BME280;48003;52.084;5.224;2023-12-22T00:49:12;100338.0;;;8.27;83.7
36834;BME280;48003;52.084;5.224;2023-12-22T00:50:48;100339.0;;;8.15;85.03
36834;BME280;48003;52.084;5.224;2023-12-22T00:52:24;100342.0;;;8.03;86.17
36834;BME280;48003;52.084;5.224;2023-12-22T00:55:36;100356.0;;;7.94;87.61
36834;BME280;48003;52.084;5.224;2023-12-22T00:57:12;100351.0;;;7.94;88.48
36834;BME280;48003;52.084;5.224;2023-12-22T00:58:49;100361.0;;;7.94;89.21
36834;BME280;48003;52.084;5.224;2023-12-22T01:02:05;100367.0;;;7.94;89.76
36834;BME280;48003;52.084;5.224;2023-12-22T01:03:41;100366.0;;;8.05;89.82
36834;BME280;48003;52.084;5.224;2023-12-22T01:05:17;100367.0;;;7.99;90.38
36834;BME280;48003;52.084;5.224;2023-12-22T01:06:53;100353.0;;;8.06;90.78
36834;BME280;48003;52.084;5.224;2023-12-22T01:10:06;100374.0;;;8.24;90.27
36834;BME280;48003;52.084;5.224;2023-12-22T01:11:42;100389.0;;;8.18;90.56
36834;BME280;48003;52.084;5.224;2023-12-22T01:13:18;100372.0;;;8.25;90.44
36834;BME280;48003;52.084;5.224;2023-12-22T01:16:30;100376.0;;;8.16;90.6
36834;BME280;48003;52.084;5.224;2023-12-22T01:18:06;100376.0;;;8.0;90.79
36834;BME280;48003;52.084;5.224;2023-12-22T01:19:43;100378.0;;;8.01;90.52
36834;BME280;48003;52.084;5.224;2023-12-22T01:22:58;100380.0;;;8.02;90.28
36834;BME280;48003;52.084;5.224;2023-12-22T01:24:34;100381.0;;;8.08;90.43
36834;BME280;48003;52.084;5.224;2023-12-22T01:26:10;100378.0;;;8.14;90.14
36834;BME280;48003;52.084;5.224;2023-12-22T01:27:46;100364.0;;;8.18;90.02
36834;BME280;48003;52.084;5.224;2023-12-22T01:30:58;100372.0;;;8.35;89.5
36834;BME280;48003;52.084;5.224;2023-12-22T01:32:34;100375.0;;;8.26;89.75
36834;BME280;48003;52.084;5.224;2023-12-22T01:34:10;100382.0;;;8.35;89.57
36834;BME280;48003;52.084;5.224;2023-12-22T01:37:23;100384.0;;;8.48;89.07
36834;BME280;48003;52.084;5.224;2023-12-22T01:38:59;100373.0;;;8.55;89.03
36834;BME280;48003;52.084;5.224;2023-12-22T01:40:35;100373.0;;;8.43;88.99
36834;BME280;48003;52.084;5.224;2023-12-22T01:43:47;100369.0;;;8.51;89.59
36834;BME280;48003;52.084;5.224;2023-12-22T01:45:26;100382.0;;;8.43;89.44
36834;BME280;48003;52.084;5.224;2023-12-22T01:47:03;100378.0;;;8.68;89.2
36834;BME280;48003;52.084;5.224;2023-12-22T01:48:39;100375.0;;;8.56;88.94
36834;BME280;48003;52.084;5.224;2023-12-22T01:51:53;100374.0;;;8.59;88.99
36834;BME280;48003;52.084;5.224;2023-12-22T01:53:29;100368.0;;;8.57;89.25
36834;BME280;48003;52.084;5.224;2023-12-22T01:55:10;100360.0;;;8.66;88.91
36834;BME280;48003;52.084;5.224;2023-12-22T01:58:24;100360.0;;;8.53;88.76
36834;BME280;48003;52.084;5.224;2023-12-22T02:00:01;100353.0;;;8.56;89.01
36834;BME280;48003;52.084;5.224;2023-12-22T02:01:39;100353.0;;;8.59;88.92
36834;BME280;48003;52.084;5.224;2023-12-22T02:04:53;100367.0;;;8.73;88.66
36834;BME280;48003;52.084;5.224;2023-12-22T02:06:30;100367.0;;;8.82;88.16
36834;BME280;48003;52.084;5.224;2023-12-22T02:08:10;100364.0;;;8.69;88.13
36834;BME280;48003;52.084;5.224;2023-12-22T02:09:47;100361.0;;;8.82;87.56
36834;BME280;48003;52.084;5.224;2023-12-22T02:12:59;100362.0;;;8.84;87.16
36834;BME280;48003;52.084;5.224;2023-12-22T02:14:35;100369.0;;;9.03;86.5
36834;BME280;48003;52.084;5.224;2023-12-22T02:16:17;100362.0;;;9.06;86.06
36834;BME280;48003;52.084;5.224;2023-12-22T02:19:42;100361.0;;;8.96;86.18
36834;BME280;48003;52.084;5.224;2023-12-22T02:21:18;100361.0;;;8.92;85.96
36834;BME280;48003;52.084;5.224;2023-12-22T02:22:55;100360.0;;;8.93;85.45
36834;BME280;48003;52.084;5.224;2023-12-22T02:24:31;100355.0;;;8.84;85.22
36834;BME280;48003;52.084;5.224;2023-12-22T02:27:57;100346.0;;;8.97;84.69
36834;BME280;48003;52.084;5.224;2023-12-22T02:29:41;100341.0;;;8.82;83.63
36834;BME280;48003;52.084;5.224;2023-12-22T02:31:25;100339.0;;;8.75;82.42
36834;BME280;48003;52.084;5.224;2023-12-22T02:33:12;100325.0;;;8.77;82.17
36834;BME280;48003;52.084;5.224;2023-12-22T02:34:53;100339.0;;;8.84;81.42
36834;BME280;48003;52.084;5.224;2023-12-22T02:38:12;100332.0;;;8.94;80.72
36834;BME280;48003;52.084;5.224;2023-12-22T02:39:49;100323.0;;;8.9;79.66
36834;BME280;48003;52.084;5.224;2023-12-22T02:41:26;100330.0;;;9.05;78.94
36834;BME280;48003;52.084;5.224;2023-12-22T02:44:39;100327.0;;;8.89;78.47
36834;BME280;48003;52.084;5.224;2023-12-22T02:46:15;100333.0;;;9.0;77.97
36834;BME280;48003;52.084;5.224;2023-12-22T02:47:51;100326.0;;;8.97;76.77
36834;BME280;48003;52.084;5.224;2023-12-22T02:49:27;100328.0;;;8.99;76.39
36834;BME280;48003;52.084;5.224;2023-12-22T02:52:40;100325.0;;;9.15;76.0
36834;BME280;48003;52.084;5.224;2023-12-22T02:54:16;100320.0;;;9.19;75.67
36834;BME280;48003;52.084;5.224;2023-12-22T02:55:52;100336.0;;;9.21;74.73
36834;BME280;48003;52.084;5.224;2023-12-22T02:59:05;100333.0;;;9.23;74.59
36834;BME280;48003;52.084;5.224;2023-12-22T03:00:41;100327.0;;;9.39;74.91
36834;BME280;48003;52.084;5.224;2023-12-22T03:02:17;100331.0;;;9.3;74.87
36834;BME280;48003;52.084;5.224;2023-12-22T03:05:29;100332.0;;;9.15;74.92
36834;BME280;48003;52.084;5.224;2023-12-22T03:07:05;100337.0;;;9.19;75.25
36834;BME280;48003;52.084;5.224;2023-12-22T03:08:41;100336.0;;;9.39;75.48
36834;BME280;48003;52.084;5.224;2023-12-22T03:10:17;100342.0;;;9.36;75.62
36834;BME280;48003;52.084;5.224;2023-12-22T03:13:30;100343.0;;;9.39;75.49
36834;BME280;48003;52.084;5.224;2023-12-22T03:15:07;100345.0;;;9.39;75.28
36834;BME280;48003;52.084;5.224;2023-12-22T03:16:43;100352.0;;;9.47;75.34
36834;BME280;48003;52.084;5.224;2023-12-22T03:19:55;100352.0;;;9.47;75.55
36834;BME280;48003;52.084;5.224;2023-12-22T03:21:31;100350.0;;;9.53;75.22
36834;BME280;48003;52.084;5.224;2023-12-22T03:23:07;100337.0;;;9.5;75.33
36834;BME280;48003;52.084;5.224;2023-12-22T03:26:20;100322.0;;;9.48;75.09
36834;BME280;48003;52.084;5.224;2023-12-22T03:27:56;100334.0;;;9.53;75.0
36834;BME280;48003;52.084;5.224;2023-12-22T03:29:32;100334.0;;;9.55;75.25
36834;BME280;48003;52.084;5.224;2023-12-22T03:32:44;100351.0;;;9.58;75.47
36834;BME280;48003;52.084;5.224;2023-12-22T03:34:20;100341.0;;;9.6;75.94
36834;BME280;48003;52.084;5.224;2023-12-22T03:35:56;100338.0;;;9.78;75.7
36834;BME280;48003;52.084;5.224;2023-12-22T03:37:32;100339.0;;;9.68;75.73
36834;BME280;48003;52.084;5.224;2023-12-22T03:40:45;100338.0;;;9.76;76.11
36834;BME280;48003;52.084;5.224;2023-12-22T03:42:21;100330.0;;;9.88;75.94
36834;BME280;48003;52.084;5.224;2023-12-22T03:43:57;100332.0;;;9.76;75.89
36834;BME280;48003;52.084;5.224;2023-12-22T03:47:13;100343.0;;;9.8;75.87
36834;BME280;48003;52.084;5.224;2023-12-22T03:48:49;100330.0;;;9.83;75.92
36834;BME280;48003;52.084;5.224;2023-12-22T03:50:25;100328.0;;;9.83;76.11
36834;BME280;48003;52.084;5.224;2023-12-22T03:53:37;100320.0;;;9.88;76.16
36834;BME280;48003;52.084;5.224;2023-12-22T03:55:14;100350.0;;;9.85;75.14
36834;BME280;48003;52.084;5.224;2023-12-22T03:56:50;100335.0;;;9.94;74.11
36834;BME280;48003;52.084;5.224;2023-12-22T03:58:31;100344.0;;;9.98;74.05
36834;BME280;48003;52.084;5.224;2023-12-22T04:01:44;100367.0;;;9.94;72.52
36834;BME280;48003;52.084;5.224;2023-12-22T04:03:20;100350.0;;;10.07;72.25
36834;BME280;48003;52.084;5.224;2023-12-22T04:04:56;100347.0;;;10.22;71.86
36834;BME280;48003;52.084;5.224;2023-12-22T04:08:08;100355.0;;;10.11;70.7
36834;BME280;48003;52.084;5.224;2023-12-22T04:09:44;100359.0;;;10.25;70.55
36834;BME280;48003;52.084;5.224;2023-12-22T04:11:20;100362.0;;;10.17;69.41
36834;BME280;48003;52.084;5.224;2023-12-22T04:14:33;100358.0;;;10.22;69.12
36834;BME280;48003;52.084;5.224;2023-12-22T04:16:09;100370.0;;;10.19;68.74
36834;BME280;48003;52.084;5.224;2023-12-22T04:17:45;100363.0;;;10.18;68.33
36834;BME280;48003;52.084;5.224;2023-12-22T04:19:21;100373.0;;;10.14;68.11
36834;BME280;48003;52.084;5.224;2023-12-22T04:22:34;100373.0;;;10.19;67.97
36834;BME280;48003;52.084;5.224;2023-12-22T04:24:10;100372.0;;;10.18;67.85
36834;BME280;48003;52.084;5.224;2023-12-22T04:25:47;100367.0;;;10.25;67.7
36834;BME280;48003;52.084;5.224;2023-12-22T04:28:59;100381.0;;;10.16;67.19
36834;BME280;48003;52.084;5.224;2023-12-22T04:30:35;100381.0;;;10.22;66.99
36834;BME280;48003;52.084;5.224;2023-12-22T04:32:11;100377.0;;;10.21;66.25
36834;BME280;48003;52.084;5.224;2023-12-22T04:35:23;100369.0;;;10.23;65.92
36834;BME280;48003;52.084;5.224;2023-12-22T04:36:59;100380.0;;;10.24;65.94
36834;BME280;48003;52.084;5.224;2023-12-22T04:38:35;100381.0;;;10.3;65.67
36834;BME280;48003;52.084;5.224;2023-12-22T04:41:48;100369.0;;;10.34;65.8
36834;BME280;48003;52.084;5.224;2023-12-22T04:43:27;100375.0;;;10.36;66.1
36834;BME280;48003;52.084;5.224;2023-12-22T04:45:03;100372.0;;;10.49;66.36
36834;BME280;48003;52.084;5.224;2023-12-22T04:46:40;100374.0;;;10.48;66.3
36834;BME280;48003;52.084;5.224;2023-12-22T04:49:52;100389.0;;;10.33;67.03
36834;BME280;48003;52.084;5.224;2023-12-22T04:51:28;100384.0;;;10.36;67.61
36834;BME280;48003;52.084;5.224;2023-12-22T04:53:04;100391.0;;;10.45;67.7
36834;BME280;48003;52.084;5.224;2023-12-22T04:56:17;100381.0;;;10.5;68.3
36834;BME280;48003;52.084;5.224;2023-12-22T04:57:53;100391.0;;;10.45;68.66
36834;BME280;48003;52.084;5.224;2023-12-22T04:59:29;100387.0;;;10.57;68.66
36834;BME280;48003;52.084;5.224;2023-12-22T05:02:41;100386.0;;;10.53;68.75
36834;BME280;48003;52.084;5.224;2023-12-22T05:04:17;100392.0;;;10.6;68.91
36834;BME280;48003;52.084;5.224;2023-12-22T05:05:56;100394.0;;;10.55;68.74
36834;BME280;48003;52.084;5.224;2023-12-22T05:07:32;100387.0;;;10.46;69.3
36834;BME280;48003;52.084;5.224;2023-12-22T05:10:45;100391.0;;;10.34;70.37
36834;BME280;48003;52.084;5.224;2023-12-22T05:12:21;100399.0;;;10.41;71.11
36834;BME280;48003;52.084;5.224;2023-12-22T05:13:57;100373.0;;;10.49;71.31
36834;BME280;48003;52.084;5.224;2023-12-22T05:17:09;100386.0;;;10.56;70.88
36834;BME280;48003;52.084;5.224;2023-12-22T05:18:46;100380.0;;;10.63;70.66
36834;BME280;48003;52.084;5.224;2023-12-22T05:20:22;100387.0;;;10.76;70.27
36834;BME280;48003;52.084;5.224;2023-12-22T05:23:35;100385.0;;;10.79;69.86
36834;BME280;48003;52.084;5.224;2023-12-22T05:25:13;100378.0;;;10.72;69.89
36834;BME280;48003;52.084;5.224;2023-12-22T05:26:49;100369.0;;;10.61;70.11
36834;BME280;48003;52.084;5.224;2023-12-22T05:28:25;100387.0;;;10.69;70.34
36834;BME280;48003;52.084;5.224;2023-12-22T05:31:38;100378.0;;;10.64;70.72
36834;BME280;48003;52.084;5.224;2023-12-22T05:33:14;100377.0;;;10.64;71.3
36834;BME280;48003;52.084;5.224;2023-12-22T05:34:50;100373.0;;;10.68;71.36
36834;BME280;48003;52.084;5.224;2023-12-22T05:38:03;100375.0;;;10.72;71.41
36834;BME280;48003;52.084;5.224;2023-12-22T05:39:39;100368.0;;;10.74;71.73
36834;BME280;48003;52.084;5.224;2023-12-22T05:41:15;100368.0;;;10.78;71.91
36834;BME280;48003;52.084;5.224;2023-12-22T05:44:27;100364.0;;;10.85;72.05
36834;BME280;48003;52.084;5.224;2023-12-22T05:46:03;100364.0;;;10.79;72.61
36834;BME280;48003;52.084;5.224;2023-12-22T05:47:39;100369.0;;;10.82;73.11
36834;BME280;48003;52.084;5.224;2023-12-22T05:49:16;100372.0;;;10.88;73.49
36834;BME280;48003;52.084;5.224;2023-12-22T05:52:28;100367.0;;;10.9;73.64
36834;BME280;48003;52.084;5.224;2023-12-22T05:54:05;100364.0;;;10.94;73.77
36834;BME280;48003;52.084;5.224;2023-12-22T05:55:41;100368.0;;;10.97;73.69
36834;BME280;48003;52.084;5.224;2023-12-22T05:58:53;100360.0;;;10.87;74.34
36834;BME280;48003;52.084;5.224;2023-12-22T06:00:29;100365.0;;;10.94;74.33
36834;BME280;48003;52.084;5.224;2023-12-22T06:02:05;100361.0;;;10.96;74.41
36834;BME280;48003;52.084;5.224;2023-12-22T06:05:18;100374.0;;;10.89;74.83
36834;BME280;48003;52.084;5.224;2023-12-22T06:06:54;100377.0;;;10.86;74.88
36834;BME280;48003;52.084;5.224;2023-12-22T06:08:30;100372.0;;;10.94;74.64
36834;BME280;48003;52.084;5.224;2023-12-22T06:11:43;100376.0;;;10.97;74.61
36834;BME280;48003;52.084;5.224;2023-12-22T06:13:22;100369.0;;;11.03;74.25
36834;BME280;48003;52.084;5.224;2023-12-22T06:14:58;100371.0;;;10.9;74.22
36834;BME280;48003;52.084;5.224;2023-12-22T06:16:34;100367.0;;;10.96;74.13
36834;BME280;48003;52.084;5.224;2023-12-22T06:19:47;100372.0;;;10.87;73.69
36834;BME280;48003;52.084;5.224;2023-12-22T06:21:23;100382.0;;;10.92;73.67
36834;BME280;48003;52.084;5.224;2023-12-22T06:22:59;100383.0;;;10.82;74.08
36834;BME280;48003;52.084;5.224;2023-12-22T06:26:11;100380.0;;;10.94;73.8
36834;BME280;48003;52.084;5.224;2023-12-22T06:27:47;100392.0;;;10.9;73.86
36834;BME280;48003;52.084;5.224;2023-12-22T06:29:23;100401.0;;;10.98;73.94
36834;BME280;48003;52.084;5.224;2023-12-22T06:32:36;100394.0;;;11.07;74.02
36834;BME280;48003;52.084;5.224;2023-12-22T06:34:12;100381.0;;;11.08;74.19
36834;BME280;48003;52.084;5.224;2023-12-22T06:35:48;100381.0;;;10.87;74.95
36834;BME280;48003;52.084;5.224;2023-12-22T06:37:24;100384.0;;;10.94;75.16
36834;BME280;48003;52.084;5.224;2023-12-22T06:40:37;100389.0;;;11.02;74.98
36834;BME280;48003;52.084;5.224;2023-12-22T06:42:13;100377.0;;;11.12;74.52
36834;BME280;48003;52.084;5.224;2023-12-22T06:43:50;100380.0;;;11.04;74.81
36834;BME280;48003;52.084;5.224;2023-12-22T06:47:02;100373.0;;;10.98;74.91
36834;BME280;48003;52.084;5.224;2023-12-22T06:48:38;100382.0;;;10.96;75.48
36834;BME280;48003;52.084;5.224;2023-12-22T06:50:14;100374.0;;;10.94;75.42
36834;BME280;48003;52.084;5.224;2023-12-22T06:53:26;100374.0;;;11.01;75.31
36834;BME280;48003;52.084;5.224;2023-12-22T06:55:02;100374.0;;;11.1;74.99
36834;BME280;48003;52.084;5.224;2023-12-22T06:56:38;100368.0;;;11.13;74.94
36834;BME280;48003;52.084;5.224;2023-12-22T06:59:51;100363.0;;;11.11;75.11
36834;BME280;48003;52.084;5.224;2023-12-22T07:01:28;100364.0;;;11.09;75.06
36834;BME280;48003;52.084;5.224;2023-12-22T07:03:05;100366.0;;;11.19;74.98
36834;BME280;48003;52.084;5.224;2023-12-22T07:04:42;100360.0;;;11.15;75.0
36834;BME280;48003;52.084;5.224;2023-12-22T07:07:17;100363.0;;;11.05;75.2
36834;BME280;48003;52.084;5.224;2023-12-22T07:09:31;100367.0;;;11.08;75.27
36834;BME280;48003;52.084;5.224;2023-12-22T07:11:06;100359.0;;;11.02;75.3
36834;BME280;48003;52.084;5.224;2023-12-22T07:14:18;100335.0;;;11.09;75.36
36834;BME280;48003;52.084;5.224;2023-12-22T07:15:55;100357.0;;;11.22;74.8
36834;BME280;48003;52.084;5.224;2023-12-22T07:17:31;100356.0;;;11.27;74.86
36834;BME280;48003;52.084;5.224;2023-12-22T07:20:47;100353.0;;;11.28;74.63
36834;BME280;48003;52.084;5.224;2023-12-22T07:22:23;100356.0;;;11.24;74.7
36834;BME280;48003;52.084;5.224;2023-12-22T07:23:59;100361.0;;;11.24;75.02
36834;BME280;48003;52.084;5.224;2023-12-22T07:25:36;100369.0;;;11.38;74.78
36834;BME280;48003;52.084;5.224;2023-12-22T07:28:49;100360.0;;;11.33;75.0
36834;BME280;48003;52.084;5.224;2023-12-22T07:30:25;100361.0;;;11.23;75.41
36834;BME280;48003;52.084;5.224;2023-12-22T07:32:01;100372.0;;;11.34;74.94
36834;BME280;48003;52.084;5.224;2023-12-22T07:35:13;100380.0;;;11.18;75.41
36834;BME280;48003;52.084;5.224;2023-12-22T07:36:49;100383.0;;;11.17;76.14
36834;BME280;48003;52.084;5.224;2023-12-22T07:38:25;100363.0;;;10.93;77.97
36834;BME280;48003;52.084;5.224;2023-12-22T07:41:40;100364.0;;;11.03;78.74
36834;BME280;48003;52.084;5.224;2023-12-22T07:43:17;100358.0;;;11.2;78.47
36834;BME280;48003;52.084;5.224;2023-12-22T07:44:53;100357.0;;;11.06;79.19
36834;BME280;48003;52.084;5.224;2023-12-22T07:46:29;100346.0;;;11.13;79.06
36834;BME280;48003;52.084;5.224;2023-12-22T07:49:41;100343.0;;;11.09;79.58
36834;BME280;48003;52.084;5.224;2023-12-22T07:51:17;100335.0;;;11.11;79.86
36834;BME280;48003;52.084;5.224;2023-12-22T07:52:53;100337.0;;;11.0;80.33
36834;BME280;48003;52.084;5.224;2023-12-22T07:56:06;100340.0;;;11.06;80.77
36834;BME280;48003;52.084;5.224;2023-12-22T07:57:42;100346.0;;;11.06;81.22
36834;BME280;48003;52.084;5.224;2023-12-22T07:59:18;100339.0;;;10.94;81.87
36834;BME280;48003;52.084;5.224;2023-12-22T08:02:30;100342.0;;;11.17;81.58
36834;BME280;48003;52.084;5.224;2023-12-22T08:04:06;100370.0;;;11.11;81.39
36834;BME280;48003;52.084;5.224;2023-12-22T08:05:42;100374.0;;;10.95;82.03
36834;BME280;48003;52.084;5.224;2023-12-22T08:08:54;100361.0;;;11.04;81.96
36834;BME280;48003;52.084;5.224;2023-12-22T08:10:30;100361.0;;;11.12;81.98
36834;BME280;48003;52.084;5.224;2023-12-22T08:12:07;100370.0;;;11.16;81.87
36834;BME280;48003;52.084;5.224;2023-12-22T08:13:43;100370.0;;;11.16;82.63
36834;BME280;48003;52.084;5.224;2023-12-22T08:16:58;100372.0;;;11.09;84.54
36834;BME280;48003;52.084;5.224;2023-12-22T08:18:34;100363.0;;;10.98;85.64
36834;BME280;48003;52.084;5.224;2023-12-22T08:20:11;100365.0;;;10.99;86.62
36834;BME280;48003;52.084;5.224;2023-12-22T08:23:23;100369.0;;;10.73;87.69
36834;BME280;48003;52.084;5.224;2023-12-22T08:24:59;100372.0;;;10.63;89.27
36834;BME280;48003;52.084;5.224;2023-12-22T08:26:38;100378.0;;;10.52;90.87
36834;BME280;48003;52.084;5.224;2023-12-22T08:28:14;100359.0;;;10.41;91.41
36834;BME280;48003;52.084;5.224;2023-12-22T08:31:25;100370.0;;;10.37;92.04
36834;BME280;48003;52.084;5.224;2023-12-22T08:33:02;100366.0;;;10.28;93.35
36834;BME280;48003;52.084;5.224;2023-12-22T08:34:38;100355.0;;;10.36;93.46
36834;BME280;48003;52.084;5.224;2023-12-22T08:37:51;100344.0;;;10.35;94.42
36834;BME280;48003;52.084;5.224;2023-12-22T08:39:27;100348.0;;;10.27;94.66
36834;BME280;48003;52.084;5.224;2023-12-22T08:41:03;100345.0;;;10.28;94.92
36834;BME280;48003;52.084;5.224;2023-12-22T08:44:15;100337.0;;;10.29;95.05
36834;BME280;48003;52.084;5.224;2023-12-22T08:45:51;100349.0;;;10.43;94.92
36834;BME280;48003;52.084;5.224;2023-12-22T08:47:27;100339.0;;;10.55;94.61
36834;BME280;48003;52.084;5.224;2023-12-22T08:50:40;100336.0;;;10.48;95.1
36834;BME280;48003;52.084;5.224;2023-12-22T08:52:16;100331.0;;;10.58;95.38
36834;BME280;48003;52.084;5.224;2023-12-22T08:53:53;100328.0;;;10.68;95.31
36834;BME280;48003;52.084;5.224;2023-12-22T08:55:29;100336.0;;;10.62;95.58
36834;BME280;48003;52.084;5.224;2023-12-22T08:58:41;100339.0;;;10.68;95.76
36834;BME280;48003;52.084;5.224;2023-12-22T09:00:17;100338.0;;;10.64;95.63
36834;BME280;48003;52.084;5.224;2023-12-22T09:01:53;100336.0;;;10.61;95.93
36834;BME280;48003;52.084;5.224;2023-12-22T09:05:10;100344.0;;;10.63;95.89
36834;BME280;48003;52.084;5.224;2023-12-22T09:06:46;100342.0;;;10.7;96.37
36834;BME280;48003;52.084;5.224;2023-12-22T09:08:22;100358.0;;;10.81;96.04
36834;BME280;48003;52.084;5.224;2023-12-22T09:11:38;100344.0;;;10.76;96.56
36834;BME280;48003;52.084;5.224;2023-12-22T09:13:15;100332.0;;;10.62;95.4
36834;BME280;48003;52.084;5.224;2023-12-22T09:14:51;100331.0;;;10.48;95.76
36834;BME280;48003;52.084;5.224;2023-12-22T09:16:27;100337.0;;;10.66;95.53
36834;BME280;48003;52.084;5.224;2023-12-22T09:19:40;100334.0;;;10.62;97.05
36834;BME280;48003;52.084;5.224;2023-12-22T09:21:17;100338.0;;;10.61;97.44
36834;BME280;48003;52.084;5.224;2023-12-22T09:22:53;100330.0;;;10.61;98.02
36834;BME280;48003;52.084;5.224;2023-12-22T09:26:05;100323.0;;;10.74;97.66
36834;BME280;48003;52.084;5.224;2023-12-22T09:27:41;100335.0;;;10.79;97.78
36834;BME280;48003;52.084;5.224;2023-12-22T09:29:17;100335.0;;;10.79;97.66
36834;BME280;48003;52.084;5.224;2023-12-22T09:32:30;100338.0;;;10.82;97.4
36834;BME280;48003;52.084;5.224;2023-12-22T09:34:07;100337.0;;;10.87;97.63
36834;BME280;48003;52.084;5.224;2023-12-22T09:35:43;100331.0;;;10.92;97.65
36834;BME280;48003;52.084;5.224;2023-12-22T09:37:19;100338.0;;;11.0;96.7
36834;BME280;48003;52.084;5.224;2023-12-22T09:40:31;100330.0;;;11.09;97.06
36834;BME280;48003;52.084;5.224;2023-12-22T09:42:07;100338.0;;;11.05;96.42
36834;BME280;48003;52.084;5.224;2023-12-22T09:43:46;100330.0;;;11.15;96.47
36834;BME280;48003;52.084;5.224;2023-12-22T09:47:04;100340.0;;;11.13;96.01
36834;BME280;48003;52.084;5.224;2023-12-22T09:48:42;100335.0;;;11.17;95.79
36834;BME280;48003;52.084;5.224;2023-12-22T09:50:19;100339.0;;;11.16;95.85
36834;BME280;48003;52.084;5.224;2023-12-22T09:51:57;100338.0;;;11.09;95.88
36834;BME280;48003;52.084;5.224;2023-12-22T09:55:12;100347.0;;;11.28;95.4
36834;BME280;48003;52.084;5.224;2023-12-22T09:56:53;100347.0;;;11.25;94.75
36834;BME280;48003;52.084;5.224;2023-12-22T09:58:30;100344.0;;;11.3;94.79
36834;BME280;48003;52.084;5.224;2023-12-22T10:01:46;100345.0;;;11.3;94.4
36834;BME280;48003;52.084;5.224;2023-12-22T10:03:24;100339.0;;;11.31;94.02
36834;BME280;48003;52.084;5.224;2023-12-22T10:05:02;100352.0;;;11.37;93.9
36834;BME280;48003;52.084;5.224;2023-12-22T10:06:39;100345.0;;;11.43;93.02
36834;BME280;48003;52.084;5.224;2023-12-22T10:09:54;100337.0;;;11.46;92.59
36834;BME280;48003;52.084;5.224;2023-12-22T10:11:32;100351.0;;;11.51;92.17
36834;BME280;48003;52.084;5.224;2023-12-22T10:13:09;100348.0;;;11.49;91.76
36834;BME280;48003;52.084;5.224;2023-12-22T10:16:23;100351.0;;;11.39;91.65
36834;BME280;48003;52.084;5.224;2023-12-22T10:17:59;100355.0;;;11.53;91.4
36834;BME280;48003;52.084;5.224;2023-12-22T10:19:35;100350.0;;;11.62;91.26
36834;BME280;48003;52.084;5.224;2023-12-22T10:21:11;100355.0;;;11.53;90.9
36834;BME280;48003;52.084;5.224;2023-12-22T10:24:45;100360.0;;;11.61;90.51
36834;BME280;48003;52.084;5.224;2023-12-22T10:26:21;100355.0;;;11.58;90.09
36834;BME280;48003;52.084;5.224;2023-12-22T10:27:57;100360.0;;;11.63;90.07
36834;BME280;48003;52.084;5.224;2023-12-22T10:31:10;100360.0;;;11.62;90.16
36834;BME280;48003;52.084;5.224;2023-12-22T10:32:46;100366.0;;;11.65;89.99
36834;BME280;48003;52.084;5.224;2023-12-22T10:34:22;100359.0;;;11.57;90.22
36834;BME280;48003;52.084;5.224;2023-12-22T10:35:58;100357.0;;;11.61;90.51
36834;BME280;48003;52.084;5.224;2023-12-22T10:39:11;100370.0;;;11.6;90.38
36834;BME280;48003;52.084;5.224;2023-12-22T10:40:48;100360.0;;;11.73;90.17
36834;BME280;48003;52.084;5.224;2023-12-22T10:42:25;100367.0;;;11.71;90.09
36834;BME280;48003;52.084;5.224;2023-12-22T10:45:40;100365.0;;;11.7;90.26
36834;BME280;48003;52.084;5.224;2023-12-22T10:47:17;100357.0;;;11.66;90.23
36834;BME280;48003;52.084;5.224;2023-12-22T10:48:53;100359.0;;;11.82;89.78
36834;BME280;48003;52.084;5.224;2023-12-22T10:50:29;100366.0;;;11.83;89.28
36834;BME280;48003;52.084;5.224;2023-12-22T10:53:41;100348.0;;;11.83;89.16
36834;BME280;48003;52.084;5.224;2023-12-22T10:55:19;100352.0;;;11.67;90.0
36834;BME280;48003;52.084;5.224;2023-12-22T10:56:58;100366.0;;;11.63;89.92
36834;BME280;48003;52.084;5.224;2023-12-22T11:00:13;100364.0;;;11.65;89.98
36834;BME280;48003;52.084;5.224;2023-12-22T11:01:51;100351.0;;;11.59;89.8
36834;BME280;48003;52.084;5.224;2023-12-22T11:03:30;100358.0;;;11.56;89.59
36834;BME280;48003;52.084;5.224;2023-12-22T11:05:15;100356.0;;;11.66;89.32
36834;BME280;48003;52.084;5.224;2023-12-22T11:08:33;100358.0;;;11.73;89.11